createdAt,value
2022-08-25T00:00:19.112Z,19.00
2022-08-25T00:02:56.248Z,19.00
2022-08-25T00:05:29.132Z,19.00
2022-08-25T00:07:57.499Z,18.90
2022-08-25T00:10:25.475Z,18.90
2022-08-25T00:12:55.214Z,18.80
2022-08-25T00:15:23.598Z,18.80
2022-08-25T00:17:51.637Z,18.80
2022-08-25T00:20:20.075Z,18.70
2022-08-25T00:22:48.976Z,18.80
2022-08-25T00:25:17.565Z,18.70
2022-08-25T00:27:45.893Z,18.60
2022-08-25T00:30:16.852Z,18.80
2022-08-25T00:32:51.508Z,18.70
2022-08-25T00:35:25.436Z,18.70
2022-08-25T00:37:53.212Z,18.60
2022-08-25T00:40:21.268Z,18.60
2022-08-25T00:42:49.107Z,18.70
2022-08-25T00:45:18.835Z,18.70
2022-08-25T00:47:46.704Z,18.60
2022-08-25T00:50:14.562Z,18.70
2022-08-25T00:52:46.725Z,18.60
2022-08-25T00:55:19.152Z,18.70
2022-08-25T00:57:50.719Z,18.70
2022-08-25T01:00:23.221Z,18.50
2022-08-25T01:02:51.034Z,18.50
2022-08-25T01:05:20.751Z,18.40
2022-08-25T01:07:50.328Z,18.30
2022-08-25T01:10:19.974Z,18.40
2022-08-25T01:12:49.101Z,18.30
2022-08-25T01:15:17.988Z,18.40
2022-08-25T01:17:52.873Z,18.30
2022-08-25T01:20:23.351Z,18.40
2022-08-25T01:22:59.481Z,18.40
2022-08-25T01:25:36.574Z,18.50
2022-08-25T01:28:05.627Z,18.50
2022-08-25T01:30:33.731Z,18.40
2022-08-25T01:33:04.971Z,18.40
2022-08-25T01:35:32.884Z,18.30
2022-08-25T01:38:02.640Z,18.30
2022-08-25T01:40:31.274Z,18.20
2022-08-25T01:43:07.464Z,18.10
2022-08-25T01:45:35.445Z,18.10
2022-08-25T01:48:03.699Z,18.10
2022-08-25T01:50:32.404Z,18.00
2022-08-25T01:53:04.787Z,18.00
2022-08-25T01:55:51.446Z,18.00
2022-08-25T01:58:19.874Z,18.00
2022-08-25T02:00:48.988Z,17.90
2022-08-25T02:03:18.895Z,17.90
2022-08-25T02:05:48.254Z,17.90
2022-08-25T02:08:18.162Z,17.90
2022-08-25T02:10:46.431Z,18.10
2022-08-25T02:13:14.798Z,18.10
2022-08-25T02:15:44.414Z,18.00
2022-08-25T02:18:12.739Z,17.90
2022-08-25T02:20:41.681Z,17.90
2022-08-25T02:23:10.190Z,17.80
2022-08-25T02:25:40.912Z,17.80
2022-08-25T02:28:09.393Z,17.80
2022-08-25T02:30:38.618Z,17.70
2022-08-25T02:33:06.592Z,17.70
2022-08-25T02:35:34.329Z,17.60
2022-08-25T02:38:02.211Z,17.60
2022-08-25T02:40:30.087Z,17.50
2022-08-25T02:42:59.228Z,17.60
2022-08-25T02:45:27.059Z,17.60
2022-08-25T02:47:54.870Z,17.60
2022-08-25T02:50:22.642Z,17.70
2022-08-25T02:52:51.969Z,17.70
2022-08-25T02:55:21.917Z,17.60
2022-08-25T02:57:49.641Z,17.50
2022-08-25T03:00:19.275Z,17.40
2022-08-25T03:02:47.622Z,17.50
2022-08-25T03:05:16.236Z,17.50
2022-08-25T03:07:44.138Z,17.50
2022-08-25T03:10:15.970Z,17.40
2022-08-25T03:12:43.959Z,17.50
2022-08-25T03:15:16.793Z,17.50
2022-08-25T03:17:49.301Z,17.50
2022-08-25T03:20:18.637Z,17.40
2022-08-25T03:22:46.365Z,17.40
2022-08-25T03:25:31.989Z,17.40
2022-08-25T03:27:59.972Z,17.30
2022-08-25T03:30:28.557Z,17.40
2022-08-25T03:32:57.619Z,17.40
2022-08-25T03:35:25.357Z,17.40
2022-08-25T03:37:56.817Z,17.40
2022-08-25T03:40:25.129Z,17.30
2022-08-25T03:42:52.978Z,17.30
2022-08-25T03:45:20.904Z,17.20
2022-08-25T03:47:50.341Z,17.20
2022-08-25T03:50:21.057Z,17.20
2022-08-25T03:52:53.756Z,17.20
2022-08-25T03:55:23.853Z,17.10
2022-08-25T03:57:51.734Z,17.10
2022-08-25T04:00:20.682Z,17.10
2022-08-25T04:02:48.771Z,17.30
2022-08-25T04:05:16.672Z,17.20
2022-08-25T04:07:46.017Z,17.20
2022-08-25T04:10:14.001Z,17.10
2022-08-25T04:12:42.762Z,17.10
2022-08-25T04:15:11.513Z,17.10
2022-08-25T04:17:40.724Z,17.20
2022-08-25T04:20:10.043Z,17.20
2022-08-25T04:22:44.895Z,17.20
2022-08-25T04:25:14.340Z,17.30
2022-08-25T04:27:42.239Z,17.30
2022-08-25T04:30:11.269Z,17.30
2022-08-25T04:32:39.043Z,17.30
2022-08-25T04:35:07.718Z,17.20
2022-08-25T04:37:35.778Z,17.20
2022-08-25T04:40:04.748Z,17.20
2022-08-25T04:42:34.486Z,17.20
2022-08-25T04:45:04.085Z,17.30
2022-08-25T04:47:32.046Z,17.30
2022-08-25T04:49:59.838Z,17.30
2022-08-25T04:52:27.550Z,17.50
2022-08-25T04:54:55.406Z,17.40
2022-08-25T04:57:23.167Z,17.50
2022-08-25T04:59:52.386Z,17.50
2022-08-25T05:02:20.570Z,17.40
2022-08-25T05:04:48.363Z,17.50
2022-08-25T05:07:16.106Z,17.50
2022-08-25T05:09:44.014Z,17.60
2022-08-25T05:12:11.872Z,17.70
2022-08-25T05:14:40.656Z,17.70
2022-08-25T05:17:10.022Z,17.80
2022-08-25T05:19:37.987Z,17.80
2022-08-25T05:22:06.479Z,17.80
2022-08-25T05:24:34.228Z,17.90
2022-08-25T05:27:03.286Z,18.10
2022-08-25T05:29:31.030Z,18.20
2022-08-25T05:31:58.775Z,18.30
2022-08-25T05:34:27.886Z,18.40
2022-08-25T05:36:57.373Z,18.50
2022-08-25T05:39:26.892Z,18.60
2022-08-25T05:41:55.281Z,18.70
2022-08-25T05:44:23.495Z,18.90
2022-08-25T05:46:51.467Z,19.00
2022-08-25T05:49:19.710Z,19.10
2022-08-25T05:51:48.759Z,19.20
2022-08-25T05:54:16.944Z,19.30
2022-08-25T05:56:45.343Z,19.40
2022-08-25T05:59:13.293Z,19.60
2022-08-25T06:01:58.482Z,19.80
2022-08-25T06:04:26.281Z,20.00
2022-08-25T06:06:55.658Z,20.20
2022-08-25T06:09:24.254Z,20.40
2022-08-25T06:11:54.926Z,20.50
2022-08-25T06:14:23.613Z,20.50
2022-08-25T06:16:52.081Z,20.70
2022-08-25T06:19:21.143Z,20.80
2022-08-25T06:21:49.158Z,20.90
2022-08-25T06:24:18.210Z,21.00
2022-08-25T06:26:45.945Z,20.90
2022-08-25T06:29:14.874Z,20.90
2022-08-25T06:31:43.523Z,21.00
2022-08-25T06:34:12.001Z,21.10
2022-08-25T06:36:39.887Z,21.00
2022-08-25T06:39:07.921Z,21.10
2022-08-25T06:41:39.933Z,21.30
2022-08-25T06:44:08.005Z,21.40
2022-08-25T06:46:37.052Z,21.30
2022-08-25T06:49:05.684Z,21.10
2022-08-25T06:51:34.259Z,21.00
2022-08-25T06:54:02.029Z,20.90
2022-08-25T06:56:29.778Z,20.80
2022-08-25T06:58:59.163Z,20.90
2022-08-25T07:01:28.022Z,20.90
2022-08-25T07:04:01.673Z,21.00
2022-08-25T07:06:32.560Z,21.20
2022-08-25T07:09:00.740Z,21.50
2022-08-25T07:11:29.216Z,21.70
2022-08-25T07:13:58.275Z,21.80
2022-08-25T07:16:29.667Z,21.90
2022-08-25T07:18:59.105Z,21.90
2022-08-25T07:21:33.206Z,21.90
2022-08-25T07:24:03.432Z,22.00
2022-08-25T07:26:37.772Z,22.00
2022-08-25T07:29:11.539Z,22.00
2022-08-25T07:31:39.514Z,22.00
2022-08-25T07:34:25.556Z,22.00
2022-08-25T07:36:54.053Z,22.10
2022-08-25T07:39:22.710Z,22.20
2022-08-25T07:41:52.021Z,22.30
2022-08-25T07:44:23.342Z,22.40
2022-08-25T07:46:52.315Z,22.50
2022-08-25T07:49:23.177Z,22.50
2022-08-25T07:52:05.172Z,22.60
2022-08-25T07:54:35.437Z,22.60
2022-08-25T07:57:06.732Z,22.80
2022-08-25T07:59:39.397Z,22.80
2022-08-25T08:02:18.303Z,22.90
2022-08-25T08:04:49.425Z,22.90
2022-08-25T08:07:19.238Z,23.00
2022-08-25T08:09:53.066Z,23.00
2022-08-25T08:12:24.609Z,23.00
2022-08-25T08:14:54.610Z,23.00
2022-08-25T08:17:23.064Z,23.00
2022-08-25T08:19:50.810Z,23.20
2022-08-25T08:22:18.587Z,23.20
2022-08-25T08:24:54.794Z,23.20
2022-08-25T08:27:25.284Z,23.20
2022-08-25T08:29:55.052Z,23.10
2022-08-25T08:32:35.408Z,23.10
2022-08-25T08:35:11.594Z,23.10
2022-08-25T08:37:42.084Z,23.10
2022-08-25T08:40:11.570Z,23.20
2022-08-25T08:42:49.422Z,23.50
2022-08-25T08:45:40.554Z,23.70
2022-08-25T08:48:33.294Z,23.80
2022-08-25T08:51:15.086Z,23.80
2022-08-25T08:53:47.166Z,23.80
2022-08-25T08:56:20.365Z,23.90
2022-08-25T08:58:51.309Z,24.20
2022-08-25T09:01:26.293Z,24.40
2022-08-25T09:04:00.703Z,24.50
2022-08-25T09:06:34.076Z,24.70
2022-08-25T09:09:06.931Z,25.00
2022-08-25T09:11:52.182Z,25.10
2022-08-25T09:14:32.789Z,25.30
2022-08-25T09:17:06.239Z,25.30
2022-08-25T09:20:03.027Z,25.20
2022-08-25T09:22:47.081Z,25.30
2022-08-25T09:25:39.689Z,25.80
2022-08-25T09:28:16.659Z,26.30
2022-08-25T09:30:50.339Z,26.70
2022-08-25T09:33:23.068Z,26.60
2022-08-25T09:35:53.585Z,26.50
2022-08-25T09:38:22.306Z,26.90
2022-08-25T09:40:51.759Z,29.00
2022-08-25T09:43:23.555Z,32.30
2022-08-25T09:45:59.929Z,34.00
2022-08-25T09:48:39.725Z,35.10
2022-08-25T09:51:18.832Z,36.70
2022-08-25T09:53:52.516Z,36.60
2022-08-25T09:56:21.875Z,37.00
2022-08-25T09:58:50.159Z,37.70
2022-08-25T10:01:22.410Z,37.70
2022-08-25T10:04:01.846Z,36.80
2022-08-25T10:06:36.365Z,37.70
2022-08-25T10:09:06.699Z,39.00
2022-08-25T10:11:42.056Z,40.30
2022-08-25T10:14:20.370Z,40.50
2022-08-25T10:16:49.473Z,39.60
2022-08-25T10:19:28.513Z,37.50
2022-08-25T10:22:07.398Z,35.70
2022-08-25T10:24:35.841Z,34.10
2022-08-25T10:27:11.371Z,33.80
2022-08-25T10:30:09.156Z,35.20
2022-08-25T10:33:14.006Z,36.60
2022-08-25T10:35:56.150Z,37.10
2022-08-25T10:38:38.322Z,35.40
2022-08-25T10:41:18.739Z,32.90
2022-08-25T10:43:54.599Z,32.90
2022-08-25T10:46:34.280Z,34.10
2022-08-25T10:49:05.932Z,35.10
2022-08-25T10:51:52.986Z,35.00
2022-08-25T10:54:32.896Z,33.70
2022-08-25T10:57:09.950Z,32.70
2022-08-25T10:59:52.385Z,31.90
2022-08-25T11:02:47.625Z,31.10
2022-08-25T11:05:24.766Z,30.30
2022-08-25T11:07:59.039Z,29.90
2022-08-25T11:10:39.578Z,29.70
2022-08-25T11:13:13.497Z,29.70
2022-08-25T11:16:13.206Z,29.50
2022-08-25T11:18:43.543Z,29.50
2022-08-25T11:21:15.597Z,29.40
2022-08-25T11:23:51.453Z,29.40
2022-08-25T11:26:31.929Z,29.10
2022-08-25T11:29:05.874Z,29.20
2022-08-25T11:31:43.224Z,29.40
2022-08-25T11:34:14.470Z,29.40
2022-08-25T11:36:49.254Z,29.30
2022-08-25T11:39:32.970Z,29.40
2022-08-25T11:42:15.785Z,29.40
2022-08-25T11:44:51.885Z,29.30
2022-08-25T11:47:35.790Z,29.00
2022-08-25T11:50:06.863Z,29.10
2022-08-25T11:52:49.155Z,29.20
2022-08-25T11:55:23.472Z,29.30
2022-08-25T11:57:54.071Z,29.40
2022-08-25T12:00:41.119Z,29.30
2022-08-25T12:03:46.375Z,29.20
2022-08-25T12:06:24.972Z,29.50
2022-08-25T12:09:16.684Z,29.60
2022-08-25T12:11:55.056Z,29.60
2022-08-25T12:14:53.172Z,29.80
2022-08-25T12:17:26.700Z,29.90
2022-08-25T12:19:58.638Z,30.00
2022-08-25T12:22:55.929Z,30.00
2022-08-25T12:25:48.502Z,30.10
2022-08-25T12:28:40.923Z,30.20
2022-08-25T12:31:19.982Z,30.40
2022-08-25T12:34:05.216Z,30.30
2022-08-25T12:36:35.576Z,30.20
2022-08-25T12:39:24.313Z,30.10
2022-08-25T12:41:56.281Z,30.10
2022-08-25T12:44:44.820Z,30.20
2022-08-25T12:47:29.777Z,30.40
2022-08-25T12:50:29.009Z,30.50
2022-08-25T12:53:01.989Z,30.40
2022-08-25T12:55:30.384Z,30.40
2022-08-25T12:58:00.914Z,30.40
2022-08-25T13:00:36.258Z,30.30
2022-08-25T13:06:38.088Z,30.50
2022-08-25T13:09:50.242Z,30.60
2022-08-25T13:12:22.665Z,30.70
2022-08-25T13:14:55.115Z,30.60
2022-08-25T13:17:29.059Z,30.60
2022-08-25T13:20:12.825Z,30.60
2022-08-25T13:22:41.041Z,30.80
2022-08-25T13:25:17.749Z,30.90
2022-08-25T13:27:51.851Z,30.80
2022-08-25T13:30:26.146Z,30.70
2022-08-25T13:32:56.831Z,30.70
2022-08-25T13:35:32.152Z,30.60
2022-08-25T13:38:13.563Z,30.50
2022-08-25T13:40:43.205Z,30.30
2022-08-25T13:43:13.924Z,30.10
2022-08-25T13:45:45.742Z,30.00
2022-08-25T13:48:32.088Z,29.90
2022-08-25T13:51:09.748Z,29.90
2022-08-25T13:53:39.970Z,30.00
2022-08-25T13:56:08.304Z,30.10
2022-08-25T13:58:44.675Z,30.10
2022-08-25T14:01:31.437Z,30.00
2022-08-25T14:04:33.967Z,29.80
2022-08-25T14:07:13.176Z,29.80
2022-08-25T14:09:46.425Z,29.70
2022-08-25T14:12:33.103Z,29.60
2022-08-25T14:15:05.485Z,29.70
2022-08-25T14:17:39.961Z,29.80
2022-08-25T14:20:23.674Z,30.00
2022-08-25T14:22:58.542Z,30.00
2022-08-25T14:25:27.667Z,29.90
2022-08-25T14:28:16.566Z,29.80
2022-08-25T14:30:49.303Z,29.70
2022-08-25T14:33:22.317Z,29.50
2022-08-25T14:35:54.924Z,29.50
2022-08-25T14:38:25.061Z,29.50
2022-08-25T14:40:53.851Z,29.50
2022-08-25T14:43:24.074Z,29.50
2022-08-25T14:45:59.453Z,29.60
2022-08-25T14:48:30.574Z,29.70
2022-08-25T14:51:01.269Z,29.60
2022-08-25T14:53:29.380Z,29.60
2022-08-25T14:55:59.337Z,29.60
2022-08-25T14:58:27.719Z,29.60
2022-08-25T15:01:02.514Z,29.40
2022-08-25T15:03:32.910Z,29.30
2022-08-25T15:06:02.722Z,29.30
2022-08-25T15:08:50.142Z,29.20
2022-08-25T15:11:18.287Z,29.20
2022-08-25T15:13:49.482Z,29.10
2022-08-25T15:16:25.339Z,29.20
2022-08-25T15:19:03.220Z,29.20
2022-08-25T15:21:36.835Z,29.30
2022-08-25T15:24:05.368Z,29.30
2022-08-25T15:26:35.327Z,29.20
2022-08-25T15:29:04.709Z,29.20
2022-08-25T15:31:32.599Z,29.20
2022-08-25T15:34:01.035Z,29.00
2022-08-25T15:36:29.365Z,28.70
2022-08-25T15:38:58.547Z,28.60
2022-08-25T15:41:27.715Z,28.50
2022-08-25T15:43:56.584Z,28.60
2022-08-25T15:46:25.974Z,28.50
2022-08-25T15:51:27.374Z,28.30
2022-08-25T15:53:55.734Z,28.20
2022-08-25T15:56:26.825Z,28.20
2022-08-25T15:58:55.583Z,28.10
2022-08-25T16:01:25.111Z,28.10
2022-08-25T16:03:53.465Z,28.10
2022-08-25T16:06:21.556Z,28.00
2022-08-25T16:08:50.030Z,27.90
2022-08-25T16:11:20.003Z,27.80
2022-08-25T16:13:51.554Z,27.80
2022-08-25T16:16:20.547Z,27.80
2022-08-25T16:18:48.805Z,27.80
2022-08-25T16:21:20.885Z,27.70
2022-08-25T16:23:49.383Z,27.70
2022-08-25T16:26:17.609Z,27.60
2022-08-25T16:28:45.849Z,27.50
2022-08-25T16:31:16.731Z,27.50
2022-08-25T16:33:45.371Z,27.50
2022-08-25T16:36:16.036Z,27.40
2022-08-25T16:38:49.096Z,27.30
2022-08-25T16:41:20.923Z,27.30
2022-08-25T16:43:48.701Z,27.30
2022-08-25T16:46:19.605Z,27.30
2022-08-25T16:48:48.528Z,27.20
2022-08-25T16:51:19.259Z,27.10
2022-08-25T16:54:08.264Z,27.00
2022-08-25T16:56:37.487Z,26.90
2022-08-25T16:59:07.370Z,26.90
2022-08-25T17:01:37.975Z,26.80
2022-08-25T17:04:06.246Z,26.80
2022-08-25T17:06:36.751Z,26.70
2022-08-25T17:09:05.685Z,26.60
2022-08-25T17:11:36.189Z,26.60
2022-08-25T17:14:08.981Z,26.50
2022-08-25T17:16:40.604Z,26.40
2022-08-25T17:19:11.902Z,26.30
2022-08-25T17:21:45.052Z,26.20
2022-08-25T17:24:13.436Z,26.10
2022-08-25T17:26:43.143Z,26.00
2022-08-25T17:29:12.359Z,26.00
2022-08-25T17:31:44.046Z,25.90
2022-08-25T17:34:16.422Z,25.80
2022-08-25T17:36:45.218Z,25.80
2022-08-25T17:39:14.832Z,25.70
2022-08-25T17:41:44.026Z,25.60
2022-08-25T17:44:12.385Z,25.50
2022-08-25T17:46:47.328Z,25.50
2022-08-25T17:49:15.972Z,25.30
2022-08-25T17:51:44.044Z,25.30
2022-08-25T17:54:13.233Z,25.10
2022-08-25T17:56:41.311Z,25.00
2022-08-25T17:59:09.196Z,24.90
2022-08-25T18:01:40.579Z,24.70
2022-08-25T18:04:17.429Z,24.70
2022-08-25T18:06:46.433Z,24.50
2022-08-25T18:09:14.390Z,24.40
2022-08-25T18:11:42.628Z,24.30
2022-08-25T18:14:11.279Z,24.20
2022-08-25T18:16:40.968Z,24.10
2022-08-25T18:19:12.455Z,23.90
2022-08-25T18:21:43.317Z,23.80
2022-08-25T18:24:11.793Z,23.80
2022-08-25T18:26:41.517Z,23.60
2022-08-25T18:29:12.175Z,23.50
2022-08-25T18:31:41.075Z,23.50
2022-08-25T18:34:11.711Z,23.40
2022-08-25T18:36:41.306Z,23.30
2022-08-25T18:39:28.761Z,23.30
2022-08-25T18:42:01.067Z,23.20
2022-08-25T18:44:29.259Z,23.10
2022-08-25T18:46:57.874Z,23.00
2022-08-25T18:49:28.807Z,22.90
2022-08-25T18:51:56.738Z,22.90
2022-08-25T18:54:24.523Z,22.90
2022-08-25T18:56:53.933Z,22.80
2022-08-25T18:59:23.742Z,22.70
2022-08-25T19:01:53.599Z,22.70
2022-08-25T19:04:28.565Z,22.60
2022-08-25T19:07:01.495Z,22.50
2022-08-25T19:09:29.334Z,22.50
2022-08-25T19:11:58.530Z,22.60
2022-08-25T19:14:26.700Z,22.60
2022-08-25T19:16:54.895Z,22.60
2022-08-25T19:19:23.917Z,22.50
2022-08-25T19:21:51.762Z,22.40
2022-08-25T19:24:21.814Z,22.40
2022-08-25T19:26:53.781Z,22.30
2022-08-25T19:29:23.533Z,22.20
2022-08-25T19:31:51.701Z,22.10
2022-08-25T19:34:25.338Z,22.00
2022-08-25T19:36:56.972Z,22.00
2022-08-25T19:39:27.830Z,22.10
2022-08-25T19:41:56.746Z,22.10
2022-08-25T19:44:26.166Z,21.90
2022-08-25T19:46:56.223Z,21.70
2022-08-25T19:49:31.450Z,21.70
2022-08-25T19:52:00.117Z,21.60
2022-08-25T19:54:31.832Z,21.50
2022-08-25T19:57:00.130Z,21.60
2022-08-25T19:59:42.280Z,21.60
2022-08-25T20:02:15.190Z,21.50
2022-08-25T20:04:43.924Z,21.60
2022-08-25T20:07:18.550Z,21.60
2022-08-25T20:09:48.573Z,21.60
2022-08-25T20:12:17.674Z,21.60
2022-08-25T20:14:46.779Z,21.40
2022-08-25T20:17:24.799Z,21.30
2022-08-25T20:19:56.091Z,21.30
2022-08-25T20:22:26.160Z,21.20
2022-08-25T20:24:58.000Z,21.20
2022-08-25T20:27:32.152Z,21.10
2022-08-25T20:30:02.742Z,21.20
2022-08-25T20:32:32.197Z,21.00
2022-08-25T20:35:00.204Z,21.00
2022-08-25T20:37:27.955Z,21.00
2022-08-25T20:39:57.337Z,21.00
2022-08-25T20:42:25.276Z,21.00
2022-08-25T20:44:54.638Z,21.00
2022-08-25T20:47:22.645Z,21.00
2022-08-25T20:49:50.880Z,21.00
2022-08-25T20:52:20.827Z,21.00
2022-08-25T20:54:51.159Z,20.80
2022-08-25T20:57:25.823Z,20.70
2022-08-25T20:59:54.874Z,20.60
2022-08-25T21:02:23.631Z,20.50
2022-08-25T21:04:51.602Z,20.30
2022-08-25T21:07:19.760Z,20.30
2022-08-25T21:09:48.370Z,20.20
2022-08-25T21:12:16.311Z,20.20
2022-08-25T21:14:45.882Z,20.20
2022-08-25T21:17:15.134Z,20.10
2022-08-25T21:19:43.669Z,20.10
2022-08-25T21:22:11.515Z,20.00
2022-08-25T21:24:39.481Z,20.10
2022-08-25T21:27:07.317Z,20.10
2022-08-25T21:29:35.198Z,20.10
2022-08-25T21:32:04.739Z,20.20
2022-08-25T21:34:32.537Z,20.10
2022-08-25T21:37:00.413Z,20.20
2022-08-25T21:39:31.988Z,20.20
2022-08-25T21:42:00.548Z,20.20
2022-08-25T21:44:29.505Z,20.00
2022-08-25T21:46:57.792Z,19.90
2022-08-25T21:49:27.478Z,19.80
2022-08-25T21:52:00.957Z,19.70
2022-08-25T21:54:30.168Z,19.70
2022-08-25T21:57:00.935Z,19.70
2022-08-25T21:59:31.947Z,19.70
2022-08-25T22:02:04.213Z,19.60
2022-08-25T22:04:34.093Z,19.60
2022-08-25T22:07:02.459Z,19.60
2022-08-25T22:09:31.371Z,19.60
2022-08-25T22:11:59.347Z,19.70
2022-08-25T22:14:27.903Z,19.80
2022-08-25T22:16:56.272Z,19.90
2022-08-25T22:19:24.833Z,19.90
2022-08-25T22:21:54.802Z,20.00
2022-08-25T22:24:23.082Z,20.00
2022-08-25T22:26:56.758Z,20.00
2022-08-25T22:29:25.755Z,19.90
2022-08-25T22:31:53.864Z,19.90
2022-08-25T22:34:30.196Z,19.80
2022-08-25T22:37:01.780Z,19.70
2022-08-25T22:39:34.296Z,19.50
2022-08-25T22:42:02.751Z,19.50
2022-08-25T22:44:30.753Z,19.40
2022-08-25T22:46:58.524Z,19.50
2022-08-25T22:49:28.986Z,19.60
2022-08-25T22:51:56.710Z,19.40
2022-08-25T22:54:26.576Z,19.40
2022-08-25T22:56:54.501Z,19.30
2022-08-25T22:59:22.587Z,19.30
2022-08-25T23:01:52.364Z,19.30
2022-08-25T23:04:20.642Z,19.30
2022-08-25T23:06:48.567Z,19.40
2022-08-25T23:09:16.319Z,19.50
2022-08-25T23:11:45.376Z,19.50
2022-08-25T23:14:13.693Z,19.50
2022-08-25T23:16:43.341Z,19.50
2022-08-25T23:19:13.778Z,19.40
2022-08-25T23:21:59.838Z,19.40
2022-08-25T23:24:29.868Z,19.40
2022-08-25T23:27:01.614Z,19.40
2022-08-25T23:29:30.856Z,19.40
2022-08-25T23:31:59.564Z,19.30
2022-08-25T23:34:28.698Z,19.30
2022-08-25T23:36:58.202Z,19.20
2022-08-25T23:39:26.203Z,19.20
2022-08-25T23:41:54.313Z,19.10
2022-08-25T23:44:24.511Z,19.10
2022-08-25T23:46:53.611Z,19.00
2022-08-25T23:49:23.620Z,19.00
2022-08-25T23:51:53.154Z,19.00
2022-08-25T23:54:22.285Z,19.00
2022-08-25T23:56:59.104Z,19.10
2022-08-25T23:59:28.202Z,19.20
